sensor_id;sensor_type;location;lat;lon;timestamp;pressure;altitude;pressure_sealevel;temperature;humidity
73085;BME280;62974;49.460;10.892;2023-03-01T00:01:12;98728.03;;;-0.49;71.43
73085;BME280;62974;49.460;10.892;2023-03-01T00:03:40;98731.69;;;-0.51;71.37
73085;BME280;62974;49.460;10.892;2023-03-01T00:06:10;98733.72;;;-0.55;71.55
73085;BME280;62974;49.460;10.892;2023-03-01T00:08:37;98731.91;;;-0.54;71.98
73085;BME280;62974;49.460;10.892;2023-03-01T00:11:07;98730.75;;;-0.50;71.96
73085;BME280;62974;49.460;10.892;2023-03-01T00:13:35;98732.88;;;-0.55;72.10
73085;BME280;62974;49.460;10.892;2023-03-01T00:16:04;98744.03;;;-1.53;76.37
73085;BME280;62974;49.460;10.892;2023-03-01T00:18:31;98738.69;;;-0.63;73.54
73085;BME280;62974;49.460;10.892;2023-03-01T00:20:59;98743.09;;;-0.51;72.14
73085;BME280;62974;49.460;10.892;2023-03-01T00:23:28;98732.00;;;-0.56;72.19
73085;BME280;62974;49.460;10.892;2023-03-01T00:25:56;98735.50;;;-0.55;71.91
73085;BME280;62974;49.460;10.892;2023-03-01T00:28:23;98739.03;;;-1.05;74.46
73085;BME280;62974;49.460;10.892;2023-03-01T00:30:51;98727.28;;;-0.63;72.67
73085;BME280;62974;49.460;10.892;2023-03-01T00:33:19;98725.69;;;-0.53;72.58
73085;BME280;62974;49.460;10.892;2023-03-01T00:35:46;98724.47;;;-0.60;72.01
73085;BME280;62974;49.460;10.892;2023-03-01T00:38:14;98722.25;;;-0.79;71.56
73085;BME280;62974;49.460;10.892;2023-03-01T00:40:43;98722.78;;;-0.74;72.28
73085;BME280;62974;49.460;10.892;2023-03-01T00:43:10;98723.53;;;-0.72;71.75
73085;BME280;62974;49.460;10.892;2023-03-01T00:45:38;98721.84;;;-0.85;71.60
73085;BME280;62974;49.460;10.892;2023-03-01T00:48:05;98723.53;;;-0.84;72.07
73085;BME280;62974;49.460;10.892;2023-03-01T00:53:00;98721.00;;;-0.86;71.92
73085;BME280;62974;49.460;10.892;2023-03-01T00:55:28;98720.06;;;-0.85;72.20
73085;BME280;62974;49.460;10.892;2023-03-01T00:57:56;98723.00;;;-0.89;72.02
73085;BME280;62974;49.460;10.892;2023-03-01T01:00:24;98709.91;;;-0.91;71.98
73085;BME280;62974;49.460;10.892;2023-03-01T01:02:53;98711.06;;;-0.95;72.41
73085;BME280;62974;49.460;10.892;2023-03-01T01:05:20;98693.06;;;-0.88;72.45
73085;BME280;62974;49.460;10.892;2023-03-01T01:07:48;98698.66;;;-0.93;72.26
73085;BME280;62974;49.460;10.892;2023-03-01T01:10:16;98699.28;;;-1.02;72.11
73085;BME280;62974;49.460;10.892;2023-03-01T01:12:46;98692.66;;;-1.08;71.88
73085;BME280;62974;49.460;10.892;2023-03-01T01:15:15;98700.22;;;-1.03;72.12
73085;BME280;62974;49.460;10.892;2023-03-01T01:17:43;98694.75;;;-1.00;71.96
73085;BME280;62974;49.460;10.892;2023-03-01T01:20:11;98693.69;;;-0.98;72.65
73085;BME280;62974;49.460;10.892;2023-03-01T01:22:39;98684.31;;;-1.02;72.66
73085;BME280;62974;49.460;10.892;2023-03-01T01:25:07;98686.22;;;-1.04;73.05
73085;BME280;62974;49.460;10.892;2023-03-01T01:27:34;98680.44;;;-1.09;72.86
73085;BME280;62974;49.460;10.892;2023-03-01T01:30:03;98675.16;;;-1.09;72.02
73085;BME280;62974;49.460;10.892;2023-03-01T01:32:32;98671.78;;;-1.11;72.41
73085;BME280;62974;49.460;10.892;2023-03-01T01:35:00;98669.88;;;-1.09;72.92
73085;BME280;62974;49.460;10.892;2023-03-01T01:37:27;98670.75;;;-1.08;71.88
73085;BME280;62974;49.460;10.892;2023-03-01T01:39:57;98663.16;;;-1.13;72.53
73085;BME280;62974;49.460;10.892;2023-03-01T01:42:27;98665.56;;;-1.10;72.25
73085;BME280;62974;49.460;10.892;2023-03-01T01:47:58;98648.72;;;-1.20;72.27
73085;BME280;62974;49.460;10.892;2023-03-01T01:50:27;98651.53;;;-1.23;72.27
73085;BME280;62974;49.460;10.892;2023-03-01T01:53:10;98649.03;;;-1.24;71.93
73085;BME280;62974;49.460;10.892;2023-03-01T01:55:42;98646.19;;;-1.21;71.31
73085;BME280;62974;49.460;10.892;2023-03-01T01:58:12;98647.25;;;-1.24;71.86
73085;BME280;62974;49.460;10.892;2023-03-01T02:00:40;98642.38;;;-1.30;71.77
73085;BME280;62974;49.460;10.892;2023-03-01T02:03:12;98641.66;;;-1.32;71.74
73085;BME280;62974;49.460;10.892;2023-03-01T02:05:47;98634.91;;;-1.36;71.97
73085;BME280;62974;49.460;10.892;2023-03-01T02:08:22;98635.56;;;-1.32;72.43
73085;BME280;62974;49.460;10.892;2023-03-01T02:10:51;98631.31;;;-1.35;72.35
73085;BME280;62974;49.460;10.892;2023-03-01T02:13:20;98624.47;;;-1.37;71.94
73085;BME280;62974;49.460;10.892;2023-03-01T02:15:47;98623.22;;;-1.32;71.61
73085;BME280;62974;49.460;10.892;2023-03-01T02:18:17;98623.22;;;-1.32;71.95
73085;BME280;62974;49.460;10.892;2023-03-01T02:20:55;98622.69;;;-1.37;72.03
73085;BME280;62974;49.460;10.892;2023-03-01T02:23:26;98614.69;;;-1.35;72.50
73085;BME280;62974;49.460;10.892;2023-03-01T02:25:59;98615.72;;;-1.38;72.34
73085;BME280;62974;49.460;10.892;2023-03-01T02:28:33;98623.13;;;-1.68;73.57
73085;BME280;62974;49.460;10.892;2023-03-01T02:31:03;98608.13;;;-1.43;73.29
73085;BME280;62974;49.460;10.892;2023-03-01T02:33:51;98609.00;;;-1.42;72.58
73085;BME280;62974;49.460;10.892;2023-03-01T02:36:20;98606.97;;;-1.51;72.42
73085;BME280;62974;49.460;10.892;2023-03-01T02:38:51;98608.38;;;-1.46;72.83
73085;BME280;62974;49.460;10.892;2023-03-01T02:41:20;98609.31;;;-1.47;72.05
73085;BME280;62974;49.460;10.892;2023-03-01T02:43:50;98600.16;;;-1.54;72.73
73085;BME280;62974;49.460;10.892;2023-03-01T02:46:20;98597.91;;;-1.47;73.17
73085;BME280;62974;49.460;10.892;2023-03-01T02:48:50;98594.66;;;-1.51;72.46
73085;BME280;62974;49.460;10.892;2023-03-01T02:51:38;98595.72;;;-1.53;72.06
73085;BME280;62974;49.460;10.892;2023-03-01T02:54:15;98592.34;;;-1.55;72.55
73085;BME280;62974;49.460;10.892;2023-03-01T02:56:45;98589.09;;;-1.59;71.88
73085;BME280;62974;49.460;10.892;2023-03-01T02:59:18;98588.56;;;-1.51;72.47
73085;BME280;62974;49.460;10.892;2023-03-01T03:01:46;98586.97;;;-1.54;72.67
73085;BME280;62974;49.460;10.892;2023-03-01T03:04:17;98590.25;;;-1.50;73.17
73085;BME280;62974;49.460;10.892;2023-03-01T03:06:45;98595.94;;;-1.56;73.31
73085;BME280;62974;49.460;10.892;2023-03-01T03:09:13;98590.25;;;-1.63;72.30
73085;BME280;62974;49.460;10.892;2023-03-01T03:11:42;98593.63;;;-1.48;72.86
73085;BME280;62974;49.460;10.892;2023-03-01T03:14:11;98583.50;;;-1.67;72.37
73085;BME280;62974;49.460;10.892;2023-03-01T03:16:42;98573.09;;;-1.68;71.75
73085;BME280;62974;49.460;10.892;2023-03-01T03:19:10;98573.19;;;-1.70;72.24
73085;BME280;62974;49.460;10.892;2023-03-01T03:21:38;98572.88;;;-1.65;72.36
73085;BME280;62974;49.460;10.892;2023-03-01T03:24:05;98584.41;;;-2.06;74.56
73085;BME280;62974;49.460;10.892;2023-03-01T03:26:33;98574.47;;;-1.75;73.06
73085;BME280;62974;49.460;10.892;2023-03-01T03:29:00;98567.72;;;-1.67;72.79
73085;BME280;62974;49.460;10.892;2023-03-01T03:31:28;98573.38;;;-1.98;73.19
73085;BME280;62974;49.460;10.892;2023-03-01T03:33:57;98572.47;;;-1.72;73.11
73085;BME280;62974;49.460;10.892;2023-03-01T03:36:24;98569.00;;;-1.72;72.74
73085;BME280;62974;49.460;10.892;2023-03-01T03:38:52;98576.34;;;-1.65;72.80
73085;BME280;62974;49.460;10.892;2023-03-01T03:41:20;98565.19;;;-1.68;72.91
73085;BME280;62974;49.460;10.892;2023-03-01T03:43:47;98561.81;;;-1.70;74.32
73085;BME280;62974;49.460;10.892;2023-03-01T03:46:15;98570.16;;;-1.76;73.63
73085;BME280;62974;49.460;10.892;2023-03-01T03:48:44;98570.03;;;-1.75;73.57
73085;BME280;62974;49.460;10.892;2023-03-01T03:51:15;98565.28;;;-1.82;73.25
73085;BME280;62974;49.460;10.892;2023-03-01T03:53:43;98563.41;;;-1.68;73.43
73085;BME280;62974;49.460;10.892;2023-03-01T03:56:12;98560.47;;;-1.76;73.15
73085;BME280;62974;49.460;10.892;2023-03-01T03:58:39;98554.88;;;-1.71;74.13
73085;BME280;62974;49.460;10.892;2023-03-01T04:01:07;98558.34;;;-1.96;74.25
73085;BME280;62974;49.460;10.892;2023-03-01T04:03:34;98552.66;;;-1.77;74.33
73085;BME280;62974;49.460;10.892;2023-03-01T04:06:03;98558.47;;;-1.72;73.33
73085;BME280;62974;49.460;10.892;2023-03-01T04:08:33;98555.72;;;-1.83;73.50
73085;BME280;62974;49.460;10.892;2023-03-01T04:11:03;98566.53;;;-2.01;75.35
73085;BME280;62974;49.460;10.892;2023-03-01T04:13:45;98559.88;;;-2.19;76.12
73085;BME280;62974;49.460;10.892;2023-03-01T04:16:13;98562.97;;;-1.87;74.86
73085;BME280;62974;49.460;10.892;2023-03-01T04:18:40;98566.25;;;-1.83;74.63
73085;BME280;62974;49.460;10.892;2023-03-01T04:21:08;98558.56;;;-1.99;74.96
73085;BME280;62974;49.460;10.892;2023-03-01T04:23:38;98571.13;;;-2.29;75.85
73085;BME280;62974;49.460;10.892;2023-03-01T04:26:07;98567.19;;;-1.97;75.07
73085;BME280;62974;49.460;10.892;2023-03-01T04:28:37;98569.81;;;-1.97;74.87
73085;BME280;62974;49.460;10.892;2023-03-01T04:31:07;98575.50;;;-2.96;77.70
73085;BME280;62974;49.460;10.892;2023-03-01T04:33:40;98567.16;;;-2.49;78.93
73085;BME280;62974;49.460;10.892;2023-03-01T04:36:09;98555.25;;;-2.03;76.08
73085;BME280;62974;49.460;10.892;2023-03-01T04:38:39;98568.41;;;-2.28;78.22
73085;BME280;62974;49.460;10.892;2023-03-01T04:41:10;98570.72;;;-2.63;78.87
73085;BME280;62974;49.460;10.892;2023-03-01T04:43:38;98564.97;;;-2.55;77.47
73085;BME280;62974;49.460;10.892;2023-03-01T04:46:07;98568.22;;;-2.78;78.18
73085;BME280;62974;49.460;10.892;2023-03-01T04:48:35;98565.78;;;-2.15;77.45
73085;BME280;62974;49.460;10.892;2023-03-01T04:51:04;98559.28;;;-1.97;75.77
73085;BME280;62974;49.460;10.892;2023-03-01T04:53:32;98559.38;;;-2.11;75.64
73085;BME280;62974;49.460;10.892;2023-03-01T04:56:01;98561.88;;;-2.22;75.96
73085;BME280;62974;49.460;10.892;2023-03-01T04:58:29;98563.56;;;-2.21;77.34
73085;BME280;62974;49.460;10.892;2023-03-01T05:00:56;98557.97;;;-2.29;77.25
73085;BME280;62974;49.460;10.892;2023-03-01T05:03:24;98566.19;;;-2.21;77.83
73085;BME280;62974;49.460;10.892;2023-03-01T05:05:52;98562.66;;;-1.95;75.38
73085;BME280;62974;49.460;10.892;2023-03-01T05:08:20;98561.38;;;-2.02;74.55
73085;BME280;62974;49.460;10.892;2023-03-01T05:10:49;98569.94;;;-2.38;76.34
73085;BME280;62974;49.460;10.892;2023-03-01T05:13:19;98560.09;;;-2.09;75.10
73085;BME280;62974;49.460;10.892;2023-03-01T05:15:48;98563.50;;;-2.47;76.35
73085;BME280;62974;49.460;10.892;2023-03-01T05:18:16;98564.78;;;-2.66;77.95
73085;BME280;62974;49.460;10.892;2023-03-01T05:20:43;98570.75;;;-2.77;79.02
73085;BME280;62974;49.460;10.892;2023-03-01T05:23:11;98562.81;;;-2.90;79.35
73085;BME280;62974;49.460;10.892;2023-03-01T05:25:39;98561.22;;;-2.65;78.57
73085;BME280;62974;49.460;10.892;2023-03-01T05:28:10;98551.00;;;-2.97;80.15
73085;BME280;62974;49.460;10.892;2023-03-01T05:30:40;98568.81;;;-3.28;80.98
73085;BME280;62974;49.460;10.892;2023-03-01T05:33:08;98562.81;;;-3.30;81.31
73085;BME280;62974;49.460;10.892;2023-03-01T05:35:39;98550.31;;;-2.86;79.73
73085;BME280;62974;49.460;10.892;2023-03-01T05:38:08;98554.44;;;-2.55;79.37
73085;BME280;62974;49.460;10.892;2023-03-01T05:40:40;98543.25;;;-2.32;78.97
73085;BME280;62974;49.460;10.892;2023-03-01T05:43:07;98549.44;;;-2.99;80.18
73085;BME280;62974;49.460;10.892;2023-03-01T05:45:36;98556.56;;;-3.01;80.64
73085;BME280;62974;49.460;10.892;2023-03-01T05:48:06;98545.25;;;-2.89;79.12
73085;BME280;62974;49.460;10.892;2023-03-01T05:50:35;98544.72;;;-2.94;80.76
73085;BME280;62974;49.460;10.892;2023-03-01T05:53:06;98564.81;;;-3.62;82.58
73085;BME280;62974;49.460;10.892;2023-03-01T05:55:35;98552.34;;;-3.04;81.74
73085;BME280;62974;49.460;10.892;2023-03-01T05:58:05;98547.59;;;-3.11;81.39
73085;BME280;62974;49.460;10.892;2023-03-01T06:00:33;98545.97;;;-2.73;80.03
73085;BME280;62974;49.460;10.892;2023-03-01T06:03:01;98535.91;;;-2.93;79.94
73085;BME280;62974;49.460;10.892;2023-03-01T06:05:30;98541.69;;;-2.61;79.41
73085;BME280;62974;49.460;10.892;2023-03-01T06:07:58;98542.41;;;-2.72;79.41
73085;BME280;62974;49.460;10.892;2023-03-01T06:10:27;98543.41;;;-2.74;78.83
73085;BME280;62974;49.460;10.892;2023-03-01T06:12:54;98537.78;;;-2.68;78.41
73085;BME280;62974;49.460;10.892;2023-03-01T06:15:22;98542.03;;;-2.53;78.90
73085;BME280;62974;49.460;10.892;2023-03-01T06:17:50;98540.63;;;-2.71;79.28
73085;BME280;62974;49.460;10.892;2023-03-01T06:20:19;98541.28;;;-2.82;80.53
73085;BME280;62974;49.460;10.892;2023-03-01T06:22:48;98540.16;;;-2.51;78.94
73085;BME280;62974;49.460;10.892;2023-03-01T06:25:18;98545.19;;;-3.28;81.30
73085;BME280;62974;49.460;10.892;2023-03-01T06:27:47;98535.94;;;-2.54;79.34
73085;BME280;62974;49.460;10.892;2023-03-01T06:30:16;98533.84;;;-2.49;79.65
73085;BME280;62974;49.460;10.892;2023-03-01T06:32:44;98531.84;;;-2.45;79.27
73085;BME280;62974;49.460;10.892;2023-03-01T06:35:13;98532.84;;;-2.21;77.96
73085;BME280;62974;49.460;10.892;2023-03-01T06:37:44;98534.91;;;-2.39;79.19
73085;BME280;62974;49.460;10.892;2023-03-01T06:40:16;98535.84;;;-3.06;79.77
73085;BME280;62974;49.460;10.892;2023-03-01T06:42:48;98521.47;;;-2.21;78.55
73085;BME280;62974;49.460;10.892;2023-03-01T06:45:17;98520.75;;;-1.98;76.52
73085;BME280;62974;49.460;10.892;2023-03-01T06:47:44;98531.56;;;-2.94;81.16
73085;BME280;62974;49.460;10.892;2023-03-01T06:50:12;98522.00;;;-2.29;78.90
73085;BME280;62974;49.460;10.892;2023-03-01T06:52:40;98531.47;;;-2.39;78.90
73085;BME280;62974;49.460;10.892;2023-03-01T06:55:10;98536.25;;;-2.85;80.60
73085;BME280;62974;49.460;10.892;2023-03-01T06:57:39;98525.81;;;-2.20;79.16
73085;BME280;62974;49.460;10.892;2023-03-01T07:00:07;98531.56;;;-2.28;78.71
73085;BME280;62974;49.460;10.892;2023-03-01T07:02:35;98529.63;;;-1.99;77.35
73085;BME280;62974;49.460;10.892;2023-03-01T07:05:03;98527.63;;;-1.96;77.38
73085;BME280;62974;49.460;10.892;2023-03-01T07:07:31;98531.38;;;-2.64;78.58
73085;BME280;62974;49.460;10.892;2023-03-01T07:09:58;98521.41;;;-2.07;78.15
73085;BME280;62974;49.460;10.892;2023-03-01T07:12:26;98529.78;;;-2.40;80.22
73085;BME280;62974;49.460;10.892;2023-03-01T07:14:55;98523.03;;;-2.19;78.11
73085;BME280;62974;49.460;10.892;2023-03-01T07:17:22;98531.56;;;-2.28;78.65
73085;BME280;62974;49.460;10.892;2023-03-01T07:19:50;98524.44;;;-2.65;79.05
73085;BME280;62974;49.460;10.892;2023-03-01T07:22:17;98520.31;;;-2.30;79.30
73085;BME280;62974;49.460;10.892;2023-03-01T07:24:44;98514.75;;;-2.13;78.89
73085;BME280;62974;49.460;10.892;2023-03-01T07:27:12;98519.41;;;-2.04;78.17
73085;BME280;62974;49.460;10.892;2023-03-01T07:29:39;98510.75;;;-2.06;77.69
73085;BME280;62974;49.460;10.892;2023-03-01T07:32:09;98513.59;;;-2.21;78.00
73085;BME280;62974;49.460;10.892;2023-03-01T07:34:37;98515.59;;;-2.12;78.61
73085;BME280;62974;49.460;10.892;2023-03-01T07:37:05;98506.34;;;-1.80;77.80
73085;BME280;62974;49.460;10.892;2023-03-01T07:39:32;98505.41;;;-2.04;77.87
73085;BME280;62974;49.460;10.892;2023-03-01T07:42:00;98505.09;;;-2.00;77.60
73085;BME280;62974;49.460;10.892;2023-03-01T07:44:27;98506.13;;;-1.90;78.03
73085;BME280;62974;49.460;10.892;2023-03-01T07:46:55;98502.56;;;-1.88;77.35
73085;BME280;62974;49.460;10.892;2023-03-01T07:49:25;98514.13;;;-1.91;78.17
73085;BME280;62974;49.460;10.892;2023-03-01T07:51:53;98507.72;;;-2.00;78.18
73085;BME280;62974;49.460;10.892;2023-03-01T07:54:21;98499.94;;;-1.88;77.91
73085;BME280;62974;49.460;10.892;2023-03-01T07:56:49;98488.00;;;-1.69;77.40
73085;BME280;62974;49.460;10.892;2023-03-01T07:59:16;98489.19;;;-1.73;78.25
73085;BME280;62974;49.460;10.892;2023-03-01T08:01:44;98487.47;;;-1.61;77.46
73085;BME280;62974;49.460;10.892;2023-03-01T08:04:11;98496.09;;;-1.59;77.69
73085;BME280;62974;49.460;10.892;2023-03-01T08:06:40;98490.72;;;-1.45;76.42
73085;BME280;62974;49.460;10.892;2023-03-01T08:09:07;98473.28;;;-1.35;75.98
73085;BME280;62974;49.460;10.892;2023-03-01T08:11:35;98478.97;;;-1.28;75.57
73085;BME280;62974;49.460;10.892;2023-03-01T08:14:03;98482.66;;;-1.31;75.47
73085;BME280;62974;49.460;10.892;2023-03-01T08:16:31;98483.84;;;-1.11;75.19
73085;BME280;62974;49.460;10.892;2023-03-01T08:19:04;98480.50;;;-1.13;75.48
73085;BME280;62974;49.460;10.892;2023-03-01T08:21:32;98483.47;;;-0.94;74.63
73085;BME280;62974;49.460;10.892;2023-03-01T08:24:02;98483.03;;;-0.88;73.51
73085;BME280;62974;49.460;10.892;2023-03-01T08:26:30;98476.91;;;-0.88;74.45
73085;BME280;62974;49.460;10.892;2023-03-01T08:28:59;98473.81;;;-0.82;73.48
73085;BME280;62974;49.460;10.892;2023-03-01T08:31:29;98470.81;;;-0.54;72.53
73085;BME280;62974;49.460;10.892;2023-03-01T08:33:59;98456.69;;;-0.53;71.69
73085;BME280;62974;49.460;10.892;2023-03-01T08:36:29;98456.75;;;-0.66;72.15
73085;BME280;62974;49.460;10.892;2023-03-01T08:38:57;98453.47;;;-0.34;71.63
73085;BME280;62974;49.460;10.892;2023-03-01T08:41:27;98450.28;;;-0.16;70.98
73085;BME280;62974;49.460;10.892;2023-03-01T08:43:54;98455.28;;;-0.24;70.95
73085;BME280;62974;49.460;10.892;2023-03-01T08:46:25;98458.66;;;-0.33;72.02
73085;BME280;62974;49.460;10.892;2023-03-01T08:48:53;98448.38;;;-0.25;70.92
73085;BME280;62974;49.460;10.892;2023-03-01T08:51:22;98439.50;;;-0.02;69.69
73085;BME280;62974;49.460;10.892;2023-03-01T08:53:49;98432.19;;;-0.20;70.79
73085;BME280;62974;49.460;10.892;2023-03-01T08:56:18;98428.47;;;0.16;69.39
73085;BME280;62974;49.460;10.892;2023-03-01T08:58:48;98442.84;;;-0.11;71.38
73085;BME280;62974;49.460;10.892;2023-03-01T09:01:17;98438.06;;;-0.06;70.10
73085;BME280;62974;49.460;10.892;2023-03-01T09:03:45;98435.06;;;0.10;69.20
73085;BME280;62974;49.460;10.892;2023-03-01T09:06:14;98430.59;;;-0.12;70.20
73085;BME280;62974;49.460;10.892;2023-03-01T09:08:44;98431.13;;;0.27;67.90
73085;BME280;62974;49.460;10.892;2023-03-01T09:11:14;98438.19;;;0.04;69.24
73085;BME280;62974;49.460;10.892;2023-03-01T09:13:43;98421.63;;;0.46;68.19
73085;BME280;62974;49.460;10.892;2023-03-01T09:16:13;98417.75;;;0.51;66.20
73085;BME280;62974;49.460;10.892;2023-03-01T09:18:41;98418.00;;;0.59;65.04
73085;BME280;62974;49.460;10.892;2023-03-01T09:21:10;98414.53;;;0.47;66.55
73085;BME280;62974;49.460;10.892;2023-03-01T09:23:39;98411.97;;;0.57;64.83
73085;BME280;62974;49.460;10.892;2023-03-01T09:26:07;98400.34;;;0.48;65.52
73085;BME280;62974;49.460;10.892;2023-03-01T09:28:36;98411.75;;;0.60;65.93
73085;BME280;62974;49.460;10.892;2023-03-01T09:31:04;98415.94;;;0.62;67.98
73085;BME280;62974;49.460;10.892;2023-03-01T09:33:33;98407.56;;;0.89;65.13
73085;BME280;62974;49.460;10.892;2023-03-01T09:36:03;98404.81;;;0.90;64.34
73085;BME280;62974;49.460;10.892;2023-03-01T09:38:31;98411.31;;;0.43;66.91
73085;BME280;62974;49.460;10.892;2023-03-01T09:40:59;98411.47;;;1.06;64.64
73085;BME280;62974;49.460;10.892;2023-03-01T09:43:33;98404.66;;;1.03;63.63
73085;BME280;62974;49.460;10.892;2023-03-01T09:46:04;98408.31;;;1.12;63.49
73085;BME280;62974;49.460;10.892;2023-03-01T09:48:40;98404.34;;;1.17;63.90
73085;BME280;62974;49.460;10.892;2023-03-01T09:51:14;98403.50;;;1.17;62.35
73085;BME280;62974;49.460;10.892;2023-03-01T09:53:44;98409.03;;;1.14;63.21
73085;BME280;62974;49.460;10.892;2023-03-01T09:56:17;98392.19;;;1.47;61.71
73085;BME280;62974;49.460;10.892;2023-03-01T09:58:51;98396.66;;;1.56;60.29
73085;BME280;62974;49.460;10.892;2023-03-01T10:01:28;98392.66;;;1.40;61.96
73085;BME280;62974;49.460;10.892;2023-03-01T10:04:11;98401.97;;;1.76;61.28
73085;BME280;62974;49.460;10.892;2023-03-01T10:06:44;98390.22;;;1.69;60.41
73085;BME280;62974;49.460;10.892;2023-03-01T10:09:16;98392.09;;;1.78;60.61
73085;BME280;62974;49.460;10.892;2023-03-01T10:11:47;98393.91;;;2.08;60.29
73085;BME280;62974;49.460;10.892;2023-03-01T10:14:24;98389.75;;;1.85;60.22
73085;BME280;62974;49.460;10.892;2023-03-01T10:16:57;98393.63;;;1.81;60.91
73085;BME280;62974;49.460;10.892;2023-03-01T10:19:33;98392.13;;;1.67;61.37
73085;BME280;62974;49.460;10.892;2023-03-01T10:22:07;98385.09;;;1.98;60.84
73085;BME280;62974;49.460;10.892;2023-03-01T10:24:38;98377.03;;;2.09;59.46
73085;BME280;62974;49.460;10.892;2023-03-01T10:27:09;98374.31;;;1.90;59.58
73085;BME280;62974;49.460;10.892;2023-03-01T10:29:47;98373.84;;;2.15;58.60
73085;BME280;62974;49.460;10.892;2023-03-01T10:32:17;98370.22;;;1.56;61.19
73085;BME280;62974;49.460;10.892;2023-03-01T10:34:46;98371.78;;;2.19;58.99
73085;BME280;62974;49.460;10.892;2023-03-01T10:37:16;98366.41;;;2.00;59.51
73085;BME280;62974;49.460;10.892;2023-03-01T10:39:58;98381.28;;;2.31;57.95
73085;BME280;62974;49.460;10.892;2023-03-01T10:42:27;98367.97;;;2.42;56.99
73085;BME280;62974;49.460;10.892;2023-03-01T10:44:54;98373.03;;;2.24;58.07
73085;BME280;62974;49.460;10.892;2023-03-01T10:47:23;98367.69;;;2.05;60.09
73085;BME280;62974;49.460;10.892;2023-03-01T10:49:57;98352.97;;;2.22;59.15
73085;BME280;62974;49.460;10.892;2023-03-01T10:52:28;98350.56;;;3.16;55.54
73085;BME280;62974;49.460;10.892;2023-03-01T10:54:58;98358.75;;;2.46;58.22
73085;BME280;62974;49.460;10.892;2023-03-01T10:57:36;98346.63;;;2.53;58.06
73085;BME280;62974;49.460;10.892;2023-03-01T11:00:21;98327.69;;;2.96;56.87
73085;BME280;62974;49.460;10.892;2023-03-01T11:02:51;98322.91;;;3.28;55.73
73085;BME280;62974;49.460;10.892;2023-03-01T11:05:29;98323.75;;;2.52;58.15
73085;BME280;62974;49.460;10.892;2023-03-01T11:08:00;98319.50;;;3.55;56.23
73085;BME280;62974;49.460;10.892;2023-03-01T11:10:31;98313.88;;;3.68;55.09
73085;BME280;62974;49.460;10.892;2023-03-01T11:13:07;98308.25;;;3.34;55.30
73085;BME280;62974;49.460;10.892;2023-03-01T11:15:34;98308.25;;;3.15;56.57
73085;BME280;62974;49.460;10.892;2023-03-01T11:18:02;98288.72;;;3.62;54.92
73085;BME280;62974;49.460;10.892;2023-03-01T11:20:41;98294.63;;;3.47;55.03
73085;BME280;62974;49.460;10.892;2023-03-01T11:23:11;98298.72;;;3.31;55.59
73085;BME280;62974;49.460;10.892;2023-03-01T11:25:42;98279.16;;;4.06;53.43
73085;BME280;62974;49.460;10.892;2023-03-01T11:28:14;98276.41;;;3.98;52.37
73085;BME280;62974;49.460;10.892;2023-03-01T11:30:48;98276.63;;;3.87;53.50
73085;BME280;62974;49.460;10.892;2023-03-01T11:33:37;98276.88;;;3.94;54.94
73085;BME280;62974;49.460;10.892;2023-03-01T11:36:17;98276.63;;;3.87;54.49
73085;BME280;62974;49.460;10.892;2023-03-01T11:38:47;98279.06;;;3.71;55.19
73085;BME280;62974;49.460;10.892;2023-03-01T11:41:17;98272.84;;;4.17;53.55
73085;BME280;62974;49.460;10.892;2023-03-01T11:43:52;98268.22;;;4.54;51.89
73085;BME280;62974;49.460;10.892;2023-03-01T11:46:41;98256.59;;;3.93;54.66
73085;BME280;62974;49.460;10.892;2023-03-01T11:49:28;98265.41;;;4.38;51.91
73085;BME280;62974;49.460;10.892;2023-03-01T11:52:04;98269.00;;;4.29;52.63
73085;BME280;62974;49.460;10.892;2023-03-01T11:54:41;98252.09;;;4.20;52.26
73085;BME280;62974;49.460;10.892;2023-03-01T11:57:33;98251.75;;;4.68;52.58
73085;BME280;62974;49.460;10.892;2023-03-01T12:00:19;98254.50;;;4.77;51.95
73085;BME280;62974;49.460;10.892;2023-03-01T12:03:15;98245.72;;;4.31;52.87
73085;BME280;62974;49.460;10.892;2023-03-01T12:06:12;98232.00;;;4.36;53.47
73085;BME280;62974;49.460;10.892;2023-03-01T12:08:45;98229.03;;;4.39;53.24
73085;BME280;62974;49.460;10.892;2023-03-01T12:11:23;98235.94;;;4.67;50.13
73085;BME280;62974;49.460;10.892;2023-03-01T12:14:26;98225.03;;;4.52;52.21
73085;BME280;62974;49.460;10.892;2023-03-01T12:17:14;98215.78;;;5.00;49.86
73085;BME280;62974;49.460;10.892;2023-03-01T12:20:02;98216.72;;;5.16;51.28
73085;BME280;62974;49.460;10.892;2023-03-01T12:22:44;98213.44;;;4.79;51.43
73085;BME280;62974;49.460;10.892;2023-03-01T12:25:26;98214.25;;;5.23;51.45
73085;BME280;62974;49.460;10.892;2023-03-01T12:28:09;98203.19;;;5.10;50.76
73085;BME280;62974;49.460;10.892;2023-03-01T12:30:55;98206.59;;;5.20;50.55
73085;BME280;62974;49.460;10.892;2023-03-01T12:33:32;98196.97;;;5.27;50.04
73085;BME280;62974;49.460;10.892;2023-03-01T12:36:20;98187.25;;;5.44;48.99
73085;BME280;62974;49.460;10.892;2023-03-01T12:39:00;98188.88;;;5.11;50.17
73085;BME280;62974;49.460;10.892;2023-03-01T12:41:46;98180.28;;;5.17;50.25
73085;BME280;62974;49.460;10.892;2023-03-01T12:44:32;98183.84;;;5.59;49.29
73085;BME280;62974;49.460;10.892;2023-03-01T12:47:10;98180.44;;;5.41;50.58
73085;BME280;62974;49.460;10.892;2023-03-01T12:49:41;98174.56;;;5.38;50.23
73085;BME280;62974;49.460;10.892;2023-03-01T12:52:16;98166.84;;;5.52;51.34
73085;BME280;62974;49.460;10.892;2023-03-01T12:54:47;98162.56;;;5.34;51.88
73085;BME280;62974;49.460;10.892;2023-03-01T12:57:18;98159.44;;;5.80;49.86
73085;BME280;62974;49.460;10.892;2023-03-01T13:00:00;98155.06;;;6.13;48.85
73085;BME280;62974;49.460;10.892;2023-03-01T13:02:38;98151.84;;;6.01;50.29
73085;BME280;62974;49.460;10.892;2023-03-01T13:05:23;98158.88;;;6.10;48.34
73085;BME280;62974;49.460;10.892;2023-03-01T13:07:58;98161.88;;;5.65;50.60
73085;BME280;62974;49.460;10.892;2023-03-01T13:10:33;98150.94;;;5.77;50.28
73085;BME280;62974;49.460;10.892;2023-03-01T13:13:13;98156.22;;;6.10;48.52
73085;BME280;62974;49.460;10.892;2023-03-01T13:15:41;98153.19;;;5.97;49.13
73085;BME280;62974;49.460;10.892;2023-03-01T13:18:28;98149.69;;;5.89;50.30